Time;durP1;ratioP1;P1;durP2;ratioP2;P2;SDS_P1;SDS_P2;PMS_P1;PMS_P2;Temp;Humidity;BMP_temperature;BMP_pressure;BME280_temperature;BME280_humidity;BME280_pressure;Samples;Min_cycle;Max_cycle;Signal;HPM_P1;HPM_P2
2022/10/11 00:00:52;;;;;;;75.00;22.55;;;13.80;99.90;;;12.95;100.00;97854.06;5032732;28;20415;-72
2022/10/11 00:03:18;;;;;;;92.80;23.92;;;13.80;99.90;;;12.93;100.00;97850.88;5032451;28;20403;-72
2022/10/11 00:05:44;;;;;;;117.95;28.25;;;13.80;99.90;;;12.89;100.00;97857.72;5032711;28;20514;-72
2022/10/11 00:08:11;;;;;;;106.20;26.55;;;13.70;99.90;;;12.86;100.00;97853.72;5031374;28;20490;-72
2022/10/11 00:10:37;;;;;;;66.43;20.83;;;13.70;99.90;;;12.72;100.00;97856.00;5032680;28;20406;-72
2022/10/11 00:13:03;;;;;;;112.47;27.00;;;13.60;99.90;;;12.74;100.00;97853.91;5032337;28;20407;-72
2022/10/11 00:15:30;;;;;;;92.63;23.20;;;13.60;99.90;;;12.70;100.00;97855.47;5032541;28;20877;-72
2022/10/11 00:17:56;;;;;;;66.30;20.50;;;13.60;99.90;;;12.69;100.00;97856.53;5032593;28;20403;-72
2022/10/11 00:20:23;;;;;;;84.30;24.52;;;13.60;99.90;;;12.71;100.00;97858.91;5032494;28;20916;-72
2022/10/11 00:22:49;;;;;;;79.87;25.27;;;13.60;99.90;;;12.65;100.00;97860.72;5032209;28;20410;-72
2022/10/11 00:25:16;;;;;;;67.72;21.33;;;13.50;99.90;;;12.59;100.00;97869.69;5032247;28;20415;-72
2022/10/11 00:27:42;;;;;;;67.15;23.25;;;13.50;99.90;;;12.61;100.00;97872.91;5032440;28;20490;-72
2022/10/11 00:30:09;;;;;;;87.97;24.58;;;13.50;99.90;;;12.59;100.00;97871.56;5032321;28;20812;-72
2022/10/11 00:32:38;;;;;;;111.95;28.38;;;13.40;99.90;;;12.60;100.00;97868.66;5032246;28;20407;-72
2022/10/11 00:35:05;;;;;;;84.53;24.33;;;13.40;99.90;;;12.51;100.00;97866.69;5030631;28;20766;-71
2022/10/11 00:37:32;;;;;;;71.47;23.00;;;13.40;99.90;;;12.52;100.00;97866.44;5032296;28;20407;-71
2022/10/11 00:39:58;;;;;;;110.53;27.58;;;13.40;99.90;;;12.56;100.00;97864.88;5031998;28;20415;-72
2022/10/11 00:42:24;;;;;;;95.40;25.85;;;13.40;99.90;;;12.56;100.00;97864.06;5030790;28;20904;-71
2022/10/11 00:44:50;;;;;;;127.97;29.85;;;13.40;99.90;;;12.56;100.00;97869.38;5031525;28;20448;-72
2022/10/11 00:47:19;;;;;;;117.47;28.45;;;13.40;99.90;;;12.50;100.00;97870.41;5032012;28;20457;-72
2022/10/11 00:49:53;;;;;;;88.07;25.60;;;13.40;99.90;;;12.48;100.00;97862.69;5031983;28;20402;-72
2022/10/11 00:52:30;;;;;;;86.20;25.30;;;13.30;99.90;;;12.40;100.00;97863.94;5031781;28;20888;-72
2022/10/11 00:54:58;;;;;;;70.00;23.53;;;13.30;99.90;;;12.43;100.00;97870.59;5031465;28;20473;-72
2022/10/11 00:57:28;;;;;;;115.83;27.70;;;13.30;99.90;;;12.45;100.00;97873.81;5031907;28;20472;-71
2022/10/11 00:59:55;;;;;;;106.53;25.48;;;13.30;99.90;;;12.39;100.00;97870.31;5030428;28;20399;-71
2022/10/11 01:02:22;;;;;;;97.45;25.38;;;13.30;99.90;;;12.43;100.00;97875.09;5031865;28;20406;-71
2022/10/11 01:04:49;;;;;;;77.53;23.83;;;13.30;99.90;;;12.41;100.00;97872.69;5031112;28;20465;-71
2022/10/11 01:07:17;;;;;;;77.30;24.33;;;13.30;99.90;;;12.35;100.00;97874.50;5031668;28;20427;-71
2022/10/11 01:09:44;;;;;;;79.18;24.35;;;13.20;99.90;;;12.35;100.00;97873.72;5031552;28;20453;-72
2022/10/11 01:12:17;;;;;;;71.25;24.13;;;13.20;99.90;;;12.32;100.00;97875.03;5030310;28;20900;-72
2022/10/11 01:15:04;;;;;;;127.85;28.27;;;13.20;99.90;;;12.33;100.00;97878.47;5030987;28;20410;-72
2022/10/11 01:17:42;;;;;;;94.75;26.58;;;13.20;99.90;;;12.34;100.00;97874.75;5031480;28;20407;-72
2022/10/11 01:20:33;;;;;;;107.50;29.70;;;13.20;99.90;;;12.36;100.00;97875.31;5031330;28;20395;-72
2022/10/11 01:23:44;;;;;;;90.40;28.88;;;13.20;99.90;;;12.37;100.00;97883.03;5030815;28;20914;-72
2022/10/11 01:26:39;;;;;;;91.03;27.73;;;13.20;99.90;;;12.31;100.00;97869.97;5031132;28;20477;-72
2022/10/11 01:29:14;;;;;;;85.53;26.63;;;13.20;99.90;;;12.26;100.00;97872.53;5031237;28;20399;-71
2022/10/11 01:31:50;;;;;;;116.90;30.08;;;13.10;99.90;;;12.30;100.00;97876.31;5031276;28;20479;-72
2022/10/11 01:34:26;;;;;;;75.43;23.42;;;13.20;99.90;;;12.25;100.00;97877.06;5030745;28;20760;-72
2022/10/11 01:37:02;;;;;;;106.35;28.77;;;13.10;99.90;;;12.30;100.00;97876.31;5031028;28;20481;-72
2022/10/11 01:39:35;;;;;;;102.28;27.75;;;13.10;99.90;;;12.29;100.00;97875.50;5031004;28;20399;-71
2022/10/11 01:42:05;;;;;;;97.85;27.85;;;13.10;99.90;;;12.28;100.00;97881.88;5030948;28;20418;-72
2022/10/11 01:44:33;;;;;;;106.03;30.97;;;13.20;99.90;;;12.28;100.00;97876.56;5030402;28;20937;-72
2022/10/11 01:47:01;;;;;;;106.95;29.38;;;13.20;99.90;;;12.31;100.00;97875.28;5030882;28;20407;-71
2022/10/11 01:49:27;;;;;;;92.85;27.83;;;13.20;99.90;;;12.28;100.00;97867.78;5030737;28;20407;-72
2022/10/11 01:51:57;;;;;;;106.85;30.33;;;13.10;99.90;;;12.28;100.00;97870.44;5030785;28;20439;-71
2022/10/11 01:54:45;;;;;;;95.40;28.27;;;13.20;99.90;;;12.29;100.00;97877.38;5030337;28;20422;-71
2022/10/11 01:57:35;;;;;;;96.93;27.50;;;13.20;99.90;;;12.27;100.00;97874.16;5030808;28;20395;-72
2022/10/11 02:00:11;;;;;;;101.07;29.80;;;13.20;99.90;;;12.33;100.00;97875.81;5030347;28;20407;-71
2022/10/11 02:02:56;;;;;;;104.03;29.17;;;13.20;99.90;;;12.26;100.00;97880.50;5029839;28;20498;-72
2022/10/11 02:05:34;;;;;;;112.07;30.80;;;13.10;99.90;;;12.23;100.00;97878.38;5030346;28;20415;-72
2022/10/11 02:08:07;;;;;;;117.18;32.67;;;13.10;99.90;;;12.22;100.00;97874.91;5030511;28;20391;-71
2022/10/11 02:10:38;;;;;;;128.27;32.75;;;13.10;99.90;;;12.21;100.00;97878.59;5030444;28;20403;-72
2022/10/11 02:13:11;;;;;;;155.90;37.00;;;13.10;99.90;;;12.22;100.00;97871.44;5030188;28;20407;-72
2022/10/11 02:15:41;;;;;;;135.13;35.10;;;13.10;99.90;;;12.23;100.00;97876.53;5030406;28;20472;-72
2022/10/11 02:18:13;;;;;;;157.02;38.05;;;13.10;99.90;;;12.25;100.00;97869.13;5030423;28;20460;-72
2022/10/11 02:20:41;;;;;;;101.15;29.55;;;13.10;99.90;;;12.26;100.00;97868.03;5030393;28;20396;-72
2022/10/11 02:23:13;;;;;;;146.20;35.65;;;13.10;99.90;;;12.28;100.00;97868.59;5029928;28;20418;-72
2022/10/11 02:25:41;;;;;;;156.65;37.50;;;13.10;99.90;;;12.32;100.00;97871.56;5030183;28;20915;-72
2022/10/11 02:28:13;;;;;;;130.98;34.17;;;13.20;99.90;;;12.31;100.00;97877.94;5030515;28;20452;-72
2022/10/11 02:30:41;;;;;;;165.23;36.47;;;13.20;99.90;;;12.31;100.00;97877.94;5030268;28;20869;-72
2022/10/11 02:33:13;;;;;;;171.55;37.38;;;13.20;99.90;;;12.31;100.00;97877.94;5029859;28;20453;-71
2022/10/11 02:35:45;;;;;;;163.05;36.63;;;13.20;99.90;;;12.31;100.00;97884.03;5030055;28;20939;-72
2022/10/11 02:38:19;;;;;;;171.38;37.33;;;13.20;99.90;;;12.33;100.00;97881.91;5028960;28;20908;-72
2022/10/11 02:40:49;;;;;;;107.78;29.95;;;13.20;99.90;;;12.39;100.00;97888.09;5030193;28;20395;-72
2022/10/11 02:43:22;;;;;;;155.85;34.67;;;13.20;99.90;;;12.40;100.00;97877.22;5029824;28;20399;-71
2022/10/11 02:45:54;;;;;;;179.50;33.75;;;13.30;99.90;;;12.43;100.00;97885.72;5030042;28;20411;-72
2022/10/11 02:48:24;;;;;;;147.73;34.15;;;13.30;99.90;;;12.45;100.00;97884.44;5030105;28;20403;-72
2022/10/11 02:50:52;;;;;;;143.27;32.42;;;13.30;99.90;;;12.48;100.00;97883.16;5030146;28;20434;-72
2022/10/11 02:53:18;;;;;;;211.18;37.72;;;13.40;99.90;;;12.50;100.00;97884.47;5029587;28;20450;-72
2022/10/11 02:55:44;;;;;;;179.00;38.77;;;13.30;99.90;;;12.50;100.00;97889.78;5030070;28;20459;-72
2022/10/11 02:58:10;;;;;;;186.30;43.33;;;13.40;99.90;;;12.53;100.00;97889.31;5030137;28;20394;-72
2022/10/11 03:00:36;;;;;;;237.90;46.80;;;13.40;99.90;;;12.52;100.00;97890.34;5029957;28;20745;-72
2022/10/11 03:03:01;;;;;;;204.80;46.58;;;13.40;99.90;;;12.54;100.00;97892.75;5029588;28;20505;-72
2022/10/11 03:05:29;;;;;;;248.47;48.80;;;13.40;99.90;;;12.54;100.00;97890.09;5028616;28;20419;-72
2022/10/11 03:07:54;;;;;;;233.38;49.03;;;13.40;99.90;;;12.53;100.00;97894.63;5029885;28;20411;-72
2022/10/11 03:10:20;;;;;;;239.25;52.33;;;13.40;99.90;;;12.57;100.00;97897.56;5029814;28;20414;-72
2022/10/11 03:12:47;;;;;;;263.02;50.85;;;13.40;99.90;;;12.58;100.00;97902.63;5029517;28;20415;-72
2022/10/11 03:15:13;;;;;;;219.13;47.17;;;13.40;99.90;;;12.59;100.00;97901.56;5032287;28;20489;-72
2022/10/11 03:17:39;;;;;;;262.60;50.45;;;13.40;99.90;;;12.60;100.00;97897.06;5033661;28;20465;-72
2022/10/11 03:20:06;;;;;;;257.90;51.58;;;13.50;99.90;;;12.62;100.00;97903.75;5048818;28;20419;-72
2022/10/11 03:22:34;;;;;;;276.88;54.97;;;13.50;99.90;;;12.63;100.00;97900.00;5033497;28;20403;-71
2022/10/11 03:25:00;;;;;;;248.07;49.90;;;13.50;99.90;;;12.64;100.00;97906.91;5032947;28;20415;-72
2022/10/11 03:27:25;;;;;;;281.10;53.38;;;13.50;99.90;;;12.64;100.00;97900.81;5033603;28;20896;-72
2022/10/11 03:29:51;;;;;;;287.25;56.47;;;13.50;99.90;;;12.65;100.00;97899.75;5033369;28;20411;-71
2022/10/11 03:32:17;;;;;;;318.02;56.35;;;13.50;99.90;;;12.62;100.00;97908.25;5033474;28;20595;-72
2022/10/11 03:34:43;;;;;;;307.25;51.63;;;13.50;99.90;;;12.61;100.00;97906.63;5032836;28;20407;-72
2022/10/11 03:37:09;;;;;;;258.60;54.80;;;13.50;99.90;;;12.61;100.00;97909.28;5033318;28;20508;-72
2022/10/11 03:39:37;;;;;;;202.10;45.67;;;13.50;99.90;;;12.60;100.00;97905.03;5033241;28;20450;-72
2022/10/11 03:42:03;;;;;;;278.60;55.03;;;13.40;99.90;;;12.62;100.00;97910.91;5033261;28;20410;-72
2022/10/11 03:44:28;;;;;;;316.55;59.85;;;13.50;99.90;;;12.63;100.00;97910.63;5032848;28;20769;-72
2022/10/11 03:46:54;;;;;;;267.80;58.97;;;13.50;99.90;;;12.62;100.00;97911.72;5032888;28;20419;-72
2022/10/11 03:49:20;;;;;;;261.60;54.95;;;13.50;99.90;;;12.58;100.00;97910.59;5033082;28;20881;-72
2022/10/11 03:51:46;;;;;;;317.17;60.47;;;13.40;99.90;;;12.56;100.00;97915.34;5032994;28;20415;-72
2022/10/11 03:54:12;;;;;;;267.27;53.67;;;13.40;99.90;;;12.53;100.00;97921.16;5032536;28;20407;-72
2022/10/11 03:56:39;;;;;;;347.23;63.03;;;13.40;99.90;;;12.55;100.00;97918.28;5023817;28;20410;-71
2022/10/11 03:59:05;;;;;;;325.60;64.15;;;13.40;99.90;;;12.54;100.00;97917.47;5031220;28;20498;-72
2022/10/11 04:01:36;;;;;;;245.10;50.07;;;13.40;99.90;;;12.54;100.00;97925.44;5058814;22;20439;-72
2022/10/11 04:04:03;;;;;;;341.77;63.10;;;13.40;99.90;;;12.56;100.00;97919.84;5051897;28;20409;-72
2022/10/11 04:06:29;;;;;;;316.75;60.10;;;13.40;99.90;;;12.57;100.00;97930.22;5052509;28;20425;-73
2022/10/11 04:08:55;;;;;;;314.88;63.33;;;13.40;99.90;;;12.59;100.00;97922.00;5052663;28;20394;-73
2022/10/11 04:11:21;;;;;;;299.88;56.67;;;13.40;99.90;;;12.59;100.00;97932.63;5039101;28;20407;-72
2022/10/11 04:13:48;;;;;;;216.57;48.90;;;13.40;99.90;;;12.61;100.00;97933.19;5032181;28;20448;-72
2022/10/11 04:16:14;;;;;;;353.27;62.45;;;13.50;99.90;;;12.62;100.00;97932.16;5032418;28;20399;-73
2022/10/11 04:18:40;;;;;;;324.17;59.70;;;13.50;99.90;;;12.63;100.00;97939.84;5032478;28;20873;-72
2022/10/11 04:21:06;;;;;;;340.90;62.22;;;13.50;99.90;;;12.64;100.00;97940.66;5032472;28;20407;-73
2022/10/11 04:23:32;;;;;;;336.23;65.53;;;13.50;99.90;;;12.64;100.00;97944.09;5029870;28;20410;-73
2022/10/11 04:25:58;;;;;;;356.13;66.45;;;13.50;99.90;;;12.65;100.00;97937.75;5031588;28;20429;-72
2022/10/11 04:28:24;;;;;;;417.38;69.80;;;13.50;99.90;;;12.66;100.00;97942.00;5029280;28;20492;-73
2022/10/11 04:30:52;;;;;;;382.80;66.88;;;13.50;99.90;;;12.68;100.00;97936.44;5032157;28;20986;-73
2022/10/11 04:33:17;;;;;;;369.07;66.10;;;13.50;99.90;;;12.70;100.00;97942.31;5031894;28;20403;-72
2022/10/11 04:35:43;;;;;;;399.33;69.90;;;13.50;99.90;;;12.71;100.00;97933.28;5032097;28;20404;-73
2022/10/11 04:38:09;;;;;;;317.58;60.97;;;13.50;99.90;;;12.70;100.00;97937.81;5030904;28;20418;-73
2022/10/11 04:40:35;;;;;;;395.23;66.22;;;13.50;99.90;;;12.69;100.00;97941.53;5032194;28;20431;-73
2022/10/11 04:43:01;;;;;;;361.55;64.78;;;13.50;99.90;;;12.68;100.00;97939.09;5031702;28;20498;-73
2022/10/11 04:45:27;;;;;;;375.07;70.73;;;13.50;99.90;;;12.67;100.00;97940.97;5031885;28;20419;-73
2022/10/11 04:47:54;;;;;;;334.53;61.43;;;13.50;99.90;;;12.65;100.00;97951.03;5032054;28;20413;-72
2022/10/11 04:50:20;;;;;;;368.88;64.28;;;13.50;99.90;;;12.66;100.00;97946.53;5031954;28;20506;-72
2022/10/11 04:52:46;;;;;;;385.13;70.00;;;13.50;99.90;;;12.67;100.00;97954.25;5031526;28;20411;-72
2022/10/11 04:55:12;;;;;;;363.25;69.28;;;13.50;99.90;;;12.67;100.00;97950.78;5031841;28;20406;-72
2022/10/11 04:57:38;;;;;;;419.77;67.47;;;13.50;99.90;;;12.67;100.00;97950.78;5031794;28;20445;-74
2022/10/11 05:00:05;;;;;;;319.85;59.60;;;13.50;99.90;;;12.67;100.00;97950.78;5031562;28;20411;-74
2022/10/11 05:02:31;;;;;;;343.08;64.25;;;13.50;99.90;;;12.67;100.00;97954.25;5031708;28;20754;-72
2022/10/11 05:04:59;;;;;;;338.60;64.63;;;13.50;99.90;;;12.65;100.00;97956.34;5031061;28;20410;-74
2022/10/11 05:07:24;;;;;;;406.70;69.43;;;13.50;99.90;;;12.65;100.00;97963.50;5031663;28;20413;-73
2022/10/11 05:09:50;;;;;;;324.43;62.00;;;13.50;99.90;;;12.64;100.00;97965.34;5031675;28;21024;-73
2022/10/11 05:12:16;;;;;;;392.77;65.57;;;13.50;99.90;;;12.64;100.00;97959.25;5031587;28;20426;-73
2022/10/11 05:14:42;;;;;;;400.15;65.57;;;13.50;99.90;;;12.64;100.00;97968.00;5029732;28;20446;-74
2022/10/11 05:17:08;;;;;;;400.08;70.07;;;13.50;99.90;;;12.67;100.00;97964.06;5030208;28;20489;-73
2022/10/11 05:19:34;;;;;;;362.80;63.35;;;13.50;99.90;;;12.68;100.00;97965.66;5031400;28;20403;-72
2022/10/11 05:22:01;;;;;;;368.73;70.50;;;13.50;99.90;;;12.69;100.00;97969.94;5031340;28;20885;-72
2022/10/11 05:24:27;;;;;;;392.88;70.45;;;13.50;99.90;;;12.69;100.00;97967.28;5029478;28;20420;-72
2022/10/11 05:26:53;;;;;;;394.42;71.57;;;13.50;99.90;;;12.68;100.00;97971.78;5031060;28;20423;-74
2022/10/11 05:29:19;;;;;;;376.60;66.40;;;13.50;99.90;;;12.68;100.00;97977.09;5031356;28;20755;-73
2022/10/11 05:31:45;;;;;;;381.77;66.88;;;13.50;99.90;;;12.68;100.00;97982.41;5029876;28;20411;-74
2022/10/11 05:34:11;;;;;;;377.50;68.47;;;13.50;99.90;;;12.67;100.00;97980.81;5025295;28;20998;-75
2022/10/11 05:36:37;;;;;;;406.90;74.20;;;13.50;99.90;;;12.68;100.00;97986.91;5030398;28;20399;-75
2022/10/11 05:39:04;;;;;;;438.15;77.78;;;13.50;99.90;;;12.67;100.00;97988.78;5028205;28;20501;-74
2022/10/11 05:41:30;;;;;;;406.58;71.20;;;13.50;99.90;;;12.67;100.00;97990.63;5029279;28;20807;-73
2022/10/11 05:43:56;;;;;;;385.40;70.05;;;13.50;99.90;;;12.67;100.00;97987.97;5030097;28;20399;-73
2022/10/11 05:46:22;;;;;;;402.95;71.55;;;13.50;99.90;;;12.68;100.00;97992.22;5030397;28;20838;-73
2022/10/11 05:48:47;;;;;;;325.55;62.88;;;13.50;99.90;;;12.67;100.00;97990.63;5030697;28;20502;-74
2022/10/11 05:51:13;;;;;;;346.17;64.43;;;13.50;99.90;;;12.66;100.00;97997.78;5029703;28;20398;-73
2022/10/11 05:53:39;;;;;;;315.53;63.30;;;13.50;99.90;;;12.68;100.00;97998.34;5026848;28;20438;-73
2022/10/11 05:56:18;;;;;;;366.92;72.75;;;13.50;99.90;;;12.70;100.00;98000.75;5030276;28;20399;-73
2022/10/11 05:58:44;;;;;;;362.20;69.47;;;13.50;99.90;;;12.70;100.00;98008.72;5030611;28;20487;-73
2022/10/11 06:01:17;;;;;;;407.88;75.32;;;13.50;99.90;;;12.68;100.00;98002.84;5030363;28;20399;-74
2022/10/11 06:03:43;;;;;;;348.77;66.97;;;13.50;99.90;;;12.67;100.00;98014.53;5030254;28;20422;-74
2022/10/11 06:06:09;;;;;;;381.95;69.90;;;13.50;99.90;;;12.68;100.00;98022.25;5030388;28;20896;-73
2022/10/11 06:08:35;;;;;;;385.15;68.97;;;13.50;99.90;;;12.67;100.00;98025.97;5030526;28;20497;-73
2022/10/11 06:11:12;;;;;;;357.52;68.32;;;13.50;99.90;;;12.67;100.00;98031.28;5030478;28;20412;-73
2022/10/11 06:13:38;;;;;;;325.33;64.40;;;13.50;99.90;;;12.65;100.00;98035.22;5030150;28;20395;-73
2022/10/11 06:16:05;;;;;;;328.20;65.90;;;13.50;99.90;;;12.66;100.00;98034.16;5030295;28;20903;-73
2022/10/11 06:18:31;;;;;;;330.63;65.65;;;13.50;99.90;;;12.65;100.00;98036.03;5030337;28;20411;-73
2022/10/11 06:20:58;;;;;;;378.70;73.60;;;13.50;99.90;;;12.67;100.00;98033.13;5028485;28;20415;-73
2022/10/11 06:23:24;;;;;;;386.52;76.78;;;13.50;99.90;;;12.67;100.00;98033.94;5029789;28;20453;-73
2022/10/11 06:25:56;;;;;;;360.55;69.43;;;13.50;99.90;;;12.65;100.00;98032.56;5030073;28;20824;-73
2022/10/11 06:28:24;;;;;;;334.00;69.78;;;13.50;99.90;;;12.66;100.00;98034.97;5030305;28;20453;-73
2022/10/11 06:30:50;;;;;;;362.30;69.75;;;13.50;99.90;;;12.65;100.00;98037.88;5030176;28;20753;-73
2022/10/11 06:33:16;;;;;;;414.75;73.57;;;13.50;99.90;;;12.64;100.00;98042.38;5029972;28;20418;-73
2022/10/11 06:35:42;;;;;;;268.83;61.50;;;13.50;99.90;;;12.68;100.00;98043.50;5030155;28;20956;-73
2022/10/11 06:38:08;;;;;;;327.08;65.60;;;13.50;99.90;;;12.67;100.00;98046.41;5030309;28;20407;-73
2022/10/11 06:40:34;;;;;;;343.00;69.13;;;13.50;99.90;;;12.67;100.00;98051.72;5028907;28;20418;-73
2022/10/11 06:43:00;;;;;;;358.77;74.70;;;13.50;99.90;;;12.71;100.00;98055.47;5029783;28;21060;-73
2022/10/11 06:45:27;;;;;;;409.88;77.45;;;13.50;99.90;;;12.70;100.00;98053.88;5030024;28;20426;-73
2022/10/11 06:47:53;;;;;;;386.33;73.55;;;13.50;99.90;;;12.66;100.00;98053.56;5030161;28;20409;-73
2022/10/11 06:50:18;;;;;;;388.73;73.63;;;13.50;99.90;;;12.66;100.00;98058.06;5032806;28;20544;-73
2022/10/11 06:52:46;;;;;;;287.53;59.77;;;13.50;99.90;;;12.67;100.00;98071.13;5033866;28;20431;-73
2022/10/11 06:55:12;;;;;;;372.67;75.70;;;13.50;99.90;;;12.67;100.00;98062.34;5034065;28;20391;-73
2022/10/11 06:57:38;;;;;;;408.40;77.85;;;13.50;99.90;;;12.65;100.00;98065.25;5029545;28;20465;-72
2022/10/11 07:00:05;;;;;;;387.37;72.07;;;13.50;99.90;;;12.64;100.00;98066.28;5025358;28;20820;-73
2022/10/11 07:02:33;;;;;;;298.57;61.93;;;13.50;99.90;;;12.66;100.00;98063.38;5029171;28;20432;-72
2022/10/11 07:05:16;;;;;;;392.20;71.68;;;13.50;99.90;;;12.66;100.00;98077.47;5031274;28;20419;-72
2022/10/11 07:07:42;;;;;;;369.83;71.55;;;13.50;99.90;;;12.66;100.00;98082.78;5027078;28;20466;-74
2022/10/11 07:10:09;;;;;;;351.33;71.10;;;13.50;99.90;;;12.67;100.00;98080.94;5031268;28;20441;-73
2022/10/11 07:12:35;;;;;;;357.63;72.72;;;13.50;99.90;;;12.67;100.00;98084.41;5028614;28;20512;-73
2022/10/11 07:15:01;;;;;;;303.57;64.10;;;13.50;99.90;;;12.70;100.00;98086.56;5028350;28;20414;-73
2022/10/11 07:17:27;;;;;;;265.53;60.33;;;13.50;99.90;;;12.74;100.00;98085.00;5029521;28;20913;-74
2022/10/11 07:19:54;;;;;;;338.98;68.10;;;13.50;99.90;;;12.72;100.00;98092.41;5031687;28;20458;-74
2022/10/11 07:22:20;;;;;;;377.10;71.25;;;13.60;99.90;;;12.74;100.00;98092.19;5033055;28;20517;-73
2022/10/11 07:24:47;;;;;;;374.47;70.97;;;13.60;99.90;;;12.73;100.00;98091.38;5027227;28;20918;-74
2022/10/11 07:27:13;;;;;;;321.02;65.00;;;13.50;99.90;;;12.75;100.00;98099.09;5020981;28;20420;-74
2022/10/11 07:29:39;;;;;;;314.60;64.10;;;13.60;99.90;;;12.77;100.00;98104.97;5024756;28;20913;-73
2022/10/11 07:32:05;;;;;;;343.17;72.05;;;13.60;99.90;;;12.77;100.00;98107.63;5022914;28;20421;-73
2022/10/11 07:34:31;;;;;;;388.95;73.15;;;13.60;99.90;;;12.77;100.00;98104.97;5029098;28;20468;-73
2022/10/11 07:36:59;;;;;;;279.23;61.00;;;13.60;99.90;;;12.82;100.00;98104.22;5029320;28;20421;-73
2022/10/11 07:39:24;;;;;;;383.35;77.30;;;13.60;99.90;;;12.85;100.00;98101.09;5030141;28;20398;-74
2022/10/11 07:41:50;;;;;;;338.45;68.53;;;13.70;99.90;;;12.84;100.00;98102.94;5033128;28;20793;-74
2022/10/11 07:44:16;;;;;;;311.05;66.75;;;13.70;99.90;;;12.85;100.00;98101.88;5027609;28;20418;-74
2022/10/11 07:46:42;;;;;;;346.73;67.50;;;13.70;99.90;;;12.85;100.00;98104.53;5032202;28;20450;-75
2022/10/11 07:49:08;;;;;;;342.30;70.97;;;13.70;99.90;;;12.88;100.00;98104.03;5032968;28;20557;-75
2022/10/11 07:51:34;;;;;;;374.13;73.83;;;13.70;99.90;;;12.87;100.00;98107.75;5033125;28;20403;-75
2022/10/11 07:54:03;;;;;;;298.80;63.10;;;13.70;99.90;;;12.88;100.00;98101.38;5032620;28;20438;-75
2022/10/11 07:56:29;;;;;;;335.60;68.67;;;13.70;99.90;;;12.88;100.00;98103.22;5032784;28;20505;-75
2022/10/11 07:58:56;;;;;;;349.55;68.20;;;13.70;99.90;;;12.87;100.00;98109.59;5029668;28;20930;-76
2022/10/11 08:01:24;;;;;;;344.80;66.60;;;13.70;99.90;;;12.88;100.00;98108.53;5031072;28;20811;-75
2022/10/11 08:03:51;;;;;;;387.47;72.20;;;13.70;99.90;;;12.88;100.00;98108.53;5031696;28;20411;-74
2022/10/11 08:06:20;;;;;;;328.50;65.20;;;13.70;99.90;;;12.90;100.00;98115.22;5032109;28;20427;-74
2022/10/11 08:08:48;;;;;;;332.10;67.30;;;13.70;99.90;;;12.91;100.00;98116.84;5024624;28;20391;-74
2022/10/11 08:11:22;;;;;;;297.63;62.50;;;13.70;99.90;;;12.92;100.00;98121.09;5032696;28;20452;-74
2022/10/11 08:13:48;;;;;;;350.45;71.55;;;13.70;99.90;;;12.96;100.00;98114.22;5032266;28;20430;-73
2022/10/11 08:16:15;;;;;;;321.08;65.32;;;13.80;99.90;;;12.94;100.00;98113.66;5032690;28;20403;-75
2022/10/11 08:18:41;;;;;;;337.25;71.00;;;13.70;99.90;;;12.93;100.00;98114.72;5028056;28;20788;-74
2022/10/11 08:21:08;;;;;;;313.75;69.30;;;13.70;99.90;;;12.90;100.00;98115.22;5029688;28;20442;-75
2022/10/11 08:23:34;;;;;;;296.13;66.33;;;13.70;99.90;;;12.85;100.00;98114.38;5031832;28;20406;-75
2022/10/11 08:26:00;;;;;;;356.20;71.82;;;13.70;99.90;;;12.82;100.00;98114.84;5031958;28;20458;-75
2022/10/11 08:28:27;;;;;;;330.42;67.03;;;13.60;99.90;;;12.82;100.00;98120.16;5031933;28;20406;-75
2022/10/11 08:30:54;;;;;;;333.38;71.32;;;13.60;99.90;;;12.83;100.00;98121.78;5031908;28;20403;-75
2022/10/11 08:33:23;;;;;;;333.63;68.32;;;13.60;99.90;;;12.83;100.00;98125.25;5030290;28;20443;-75
2022/10/11 08:35:49;;;;;;;355.35;68.03;;;13.70;99.90;;;12.85;100.00;98119.69;5030583;28;20414;-75
2022/10/11 08:38:16;;;;;;;386.27;74.63;;;13.70;99.90;;;12.86;100.00;98126.56;5031919;28;20406;-75
2022/10/11 08:40:46;;;;;;;314.30;65.90;;;13.70;99.90;;;12.87;100.00;98123.69;5032007;28;20543;-75
2022/10/11 08:43:26;;;;;;;395.35;73.75;;;13.70;99.90;;;12.87;100.00;98120.22;5031272;28;20411;-75
2022/10/11 08:45:58;;;;;;;315.60;72.87;;;13.70;99.90;;;12.87;100.00;98122.88;5031677;28;20427;-75
2022/10/11 08:48:32;;;;;;;364.17;71.13;;;13.70;99.90;;;12.87;100.00;98122.88;5031811;28;20414;-75
2022/10/11 08:50:58;;;;;;;315.25;67.68;;;13.70;99.90;;;12.88;100.00;98122.63;5031688;28;20749;-75
2022/10/11 08:53:39;;;;;;;343.50;72.18;;;13.70;99.90;;;12.91;100.00;98129.31;5031343;28;20862;-75
2022/10/11 08:56:08;;;;;;;327.67;70.88;;;13.70;99.90;;;12.89;100.00;98126.09;5031543;28;20399;-75
2022/10/11 08:58:40;;;;;;;348.92;72.63;;;13.70;99.90;;;12.89;100.00;98129.56;5025817;28;20429;-75
2022/10/11 09:01:16;;;;;;;343.15;75.22;;;13.70;99.90;;;12.85;100.00;98127.66;5030972;28;20475;-75
2022/10/11 09:03:46;;;;;;;330.77;70.27;;;13.70;99.90;;;12.87;100.00;98130.84;5030947;28;20403;-75
2022/10/11 09:06:23;;;;;;;358.70;74.35;;;13.70;99.90;;;12.87;100.00;98126.34;5031228;28;20500;-75
2022/10/11 09:09:15;;;;;;;368.73;73.47;;;13.70;99.90;;;12.89;100.00;98126.91;5031295;28;20441;-76
2022/10/11 09:11:59;;;;;;;350.50;67.25;;;13.70;99.90;;;12.91;100.00;98126.66;5018753;28;20455;-75
2022/10/11 09:14:53;;;;;;;355.02;72.22;;;13.70;99.90;;;12.92;100.00;98137.06;5028349;28;20410;-75
2022/10/11 09:17:41;;;;;;;285.02;62.53;;;13.70;99.90;;;12.96;100.00;98134.69;5031451;28;20475;-75
2022/10/11 09:20:32;;;;;;;329.70;70.22;;;13.80;99.90;;;12.96;100.00;98134.69;5030543;28;20503;-76
2022/10/11 09:23:06;;;;;;;270.90;63.03;;;13.80;99.90;;;13.00;100.00;98125.19;5024571;28;20399;-76
2022/10/11 09:25:36;;;;;;;350.67;70.10;;;13.80;99.90;;;12.96;100.00;98134.69;5030334;28;20423;-75
2022/10/11 09:28:16;;;;;;;336.80;71.40;;;13.80;99.90;;;12.95;100.00;98127.75;5031069;28;20757;-75
2022/10/11 09:30:49;;;;;;;333.73;71.32;;;13.70;99.90;;;12.94;100.00;98128.81;5030056;28;20415;-75
2022/10/11 09:33:50;;;;;;;261.47;61.57;;;13.70;99.90;;;12.96;100.00;98135.50;5030590;28;20399;-75
2022/10/11 09:36:27;;;;;;;316.73;66.95;;;13.80;99.90;;;12.97;100.00;98131.78;5022198;28;20422;-74
2022/10/11 09:39:03;;;;;;;315.95;65.80;;;13.80;99.90;;;12.97;100.00;98128.31;5031097;28;20758;-74
2022/10/11 09:41:37;;;;;;;254.38;62.78;;;13.80;99.90;;;12.99;100.00;98135.00;5030793;28;20406;-75
2022/10/11 09:44:06;;;;;;;348.27;71.43;;;13.80;99.90;;;12.99;100.00;98135.00;5030555;28;20395;-74
2022/10/11 09:46:41;;;;;;;298.73;65.85;;;13.80;99.90;;;12.99;100.00;98128.88;5030804;28;20469;-74
2022/10/11 09:49:12;;;;;;;293.77;62.55;;;13.80;99.90;;;13.02;100.00;98133.69;5028895;28;21142;-74
2022/10/11 09:51:42;;;;;;;315.70;66.10;;;13.80;99.90;;;13.06;100.00;98137.47;5028469;28;20423;-74
2022/10/11 09:54:09;;;;;;;315.05;66.57;;;13.90;99.90;;;13.07;100.00;98134.56;5024635;28;20414;-75
2022/10/11 09:56:41;;;;;;;274.75;60.35;;;13.90;99.90;;;13.11;100.00;98140.19;5026331;28;20481;-74
2022/10/11 09:59:24;;;;;;;334.75;71.05;;;13.90;99.90;;;13.15;100.00;98133.34;5027444;28;20449;-74
2022/10/11 10:02:16;;;;;;;322.00;71.63;;;13.90;99.90;;;13.15;100.00;98141.34;5049991;22;20447;-75
2022/10/11 10:05:17;;;;;;;224.85;53.63;;;14.00;99.90;;;13.21;100.00;98142.19;5041038;28;20393;-74